createdAt,value
2018-02-10T00:01:19.256Z,52.37
2018-02-10T00:03:47.293Z,52.13
2018-02-10T00:06:16.214Z,50.33
2018-02-10T00:08:44.210Z,51.70
2018-02-10T00:11:12.224Z,49.00
2018-02-10T00:13:40.425Z,49.40
2018-02-10T00:16:09.192Z,50.83
2018-02-10T00:18:37.938Z,49.53
2018-02-10T00:21:06.098Z,46.83
2018-02-10T00:23:34.146Z,50.00
2018-02-10T00:26:02.941Z,45.33
2018-02-10T00:28:31.110Z,48.30
2018-02-10T00:30:59.909Z,47.50
2018-02-10T00:33:27.982Z,51.03
2018-02-10T00:35:56.274Z,52.50
2018-02-10T00:38:24.268Z,43.90
2018-02-10T00:40:52.530Z,48.70
2018-02-10T00:43:20.643Z,50.33
2018-02-10T00:45:48.659Z,48.47
2018-02-10T00:48:16.658Z,49.47
2018-02-10T00:50:44.764Z,47.30
2018-02-10T00:53:12.770Z,48.83
2018-02-10T00:55:40.764Z,49.33
2018-02-10T00:58:08.877Z,49.80
2018-02-10T01:00:36.909Z,50.20
2018-02-10T01:03:04.928Z,50.17
2018-02-10T01:05:33.076Z,46.80
2018-02-10T01:08:01.074Z,42.70
2018-02-10T01:10:29.366Z,40.90
2018-02-10T01:12:58.272Z,44.40
2018-02-10T01:15:26.274Z,46.17
2018-02-10T01:17:54.305Z,46.70
2018-02-10T01:20:23.165Z,45.80
2018-02-10T01:22:51.194Z,47.10
2018-02-10T01:25:19.198Z,45.80
2018-02-10T01:27:47.332Z,47.73
2018-02-10T01:30:15.328Z,46.30
2018-02-10T01:32:43.348Z,49.40
2018-02-10T01:35:12.196Z,47.87
2018-02-10T01:37:40.322Z,51.53
2018-02-10T01:40:09.088Z,45.30
2018-02-10T01:42:37.347Z,45.10
2018-02-10T01:45:05.391Z,46.70
2018-02-10T01:47:33.433Z,48.10
2018-02-10T01:50:13.784Z,46.50
2018-02-10T01:52:42.616Z,46.77
2018-02-10T01:55:10.612Z,49.20
2018-02-10T01:57:38.670Z,50.00
2018-02-10T02:00:06.981Z,51.77
2018-02-10T02:02:34.989Z,47.33
2018-02-10T02:05:03.122Z,49.07
2018-02-10T02:07:31.126Z,48.00
2018-02-10T02:09:59.859Z,48.03
2018-02-10T02:12:28.052Z,49.63
2018-02-10T02:14:56.097Z,47.77
2018-02-10T02:17:24.106Z,44.23
2018-02-10T02:19:52.215Z,44.43
2018-02-10T02:22:20.220Z,48.07
2018-02-10T02:24:48.254Z,46.70
2018-02-10T02:27:16.418Z,48.47
2018-02-10T02:29:45.147Z,49.37
2018-02-10T02:32:14.041Z,45.90
2018-02-10T02:34:42.174Z,48.60
2018-02-10T02:37:10.938Z,48.13
2018-02-10T02:39:39.084Z,47.37
2018-02-10T02:42:07.269Z,48.20
2018-02-10T02:44:35.292Z,50.73
2018-02-10T02:47:04.045Z,49.80
2018-02-10T02:49:32.221Z,48.93
2018-02-10T02:52:00.330Z,47.83
2018-02-10T02:54:28.384Z,49.87
2018-02-10T02:56:57.297Z,45.73
2018-02-10T02:59:25.298Z,47.23
2018-02-10T03:01:53.398Z,47.97
2018-02-10T03:04:21.528Z,47.60
2018-02-10T03:06:49.743Z,49.87
2018-02-10T03:09:17.781Z,51.00
2018-02-10T03:11:45.987Z,48.27
2018-02-10T03:14:13.983Z,48.60
2018-02-10T03:16:41.990Z,51.93
2018-02-10T03:19:10.131Z,52.80
2018-02-10T03:21:38.237Z,53.33
2018-02-10T03:24:06.236Z,53.77
2018-02-10T03:26:34.361Z,55.23
2018-02-10T03:29:03.100Z,55.33
2018-02-10T03:31:31.168Z,53.87
2018-02-10T03:33:59.306Z,50.27
2018-02-10T03:36:28.036Z,51.30
2018-02-10T03:38:56.145Z,54.37
2018-02-10T03:41:24.530Z,51.17
2018-02-10T03:43:53.436Z,51.67
2018-02-10T03:46:22.221Z,52.80
2018-02-10T03:48:51.126Z,54.83
2018-02-10T03:51:19.978Z,50.67
2018-02-10T03:53:47.985Z,47.53
2018-02-10T03:56:16.922Z,52.20
2018-02-10T03:58:44.948Z,47.63
2018-02-10T04:01:14.256Z,50.23
2018-02-10T04:03:42.460Z,51.27
2018-02-10T04:06:10.460Z,51.53
2018-02-10T04:08:38.500Z,51.80
2018-02-10T04:11:06.646Z,58.67
2018-02-10T04:13:35.415Z,55.07
2018-02-10T04:16:03.438Z,58.40
2018-02-10T04:18:31.613Z,58.40
2018-02-10T04:20:59.619Z,57.47
2018-02-10T04:23:27.612Z,58.00
2018-02-10T04:25:56.488Z,58.30
2018-02-10T04:28:24.503Z,59.80
2018-02-10T04:30:52.609Z,57.10
2018-02-10T04:33:20.760Z,59.03
2018-02-10T04:35:48.749Z,55.30
2018-02-10T04:38:16.790Z,61.47
2018-02-10T04:40:44.915Z,58.37
2018-02-10T04:43:13.178Z,61.87
2018-02-10T04:45:42.017Z,60.47
2018-02-10T04:48:10.910Z,60.40
2018-02-10T04:50:39.750Z,57.13
2018-02-10T04:53:07.786Z,58.80
2018-02-10T04:55:35.948Z,62.10
2018-02-10T04:58:04.689Z,65.73
2018-02-10T05:00:32.698Z,62.40
2018-02-10T05:03:01.552Z,65.73
2018-02-10T05:05:29.544Z,67.47
2018-02-10T05:07:57.562Z,62.27
2018-02-10T05:10:25.702Z,63.17
2018-02-10T05:12:54.457Z,60.00
2018-02-10T05:15:22.448Z,63.23
2018-02-10T05:17:50.599Z,66.23
2018-02-10T05:20:18.641Z,59.93
2018-02-10T05:22:46.641Z,63.13
2018-02-10T05:25:14.808Z,63.60
2018-02-10T05:27:42.854Z,60.50
2018-02-10T05:30:10.863Z,61.67
2018-02-10T05:32:39.044Z,62.33
2018-02-10T05:35:07.040Z,59.23
2018-02-10T05:37:35.042Z,58.00
2018-02-10T05:40:03.168Z,61.93
2018-02-10T05:42:31.211Z,56.10
2018-02-10T05:44:59.374Z,57.70
2018-02-10T05:47:28.303Z,55.33
2018-02-10T05:49:56.311Z,56.03
2018-02-10T05:52:25.040Z,57.27
2018-02-10T05:54:53.231Z,54.23
2018-02-10T05:57:22.082Z,52.50
2018-02-10T05:59:50.091Z,49.87
2018-02-10T06:02:18.241Z,51.83
2018-02-10T06:04:46.250Z,48.57
2018-02-10T06:07:14.281Z,47.23
2018-02-10T06:09:42.384Z,44.83
2018-02-10T06:12:10.418Z,46.07
2018-02-10T06:14:38.448Z,43.90
2018-02-10T06:17:06.585Z,44.77
2018-02-10T06:19:34.586Z,44.87
2018-02-10T06:22:02.780Z,44.60
2018-02-10T06:24:30.922Z,47.20
2018-02-10T06:26:58.937Z,46.00
2018-02-10T06:29:27.716Z,45.63
2018-02-10T06:31:55.990Z,44.57
2018-02-10T06:34:24.033Z,44.17
2018-02-10T06:36:52.061Z,41.43
2018-02-10T06:39:21.021Z,46.53
2018-02-10T06:41:49.271Z,39.87
2018-02-10T06:44:17.362Z,38.97
2018-02-10T06:46:45.678Z,38.83
2018-02-10T06:49:14.475Z,36.40
2018-02-10T06:51:42.576Z,35.37
2018-02-10T06:54:10.758Z,33.43
2018-02-10T06:56:38.817Z,35.43
2018-02-10T06:59:06.829Z,34.30
2018-02-10T07:01:35.413Z,36.80
2018-02-10T07:04:03.426Z,36.53
2018-02-10T07:06:31.435Z,34.40
2018-02-10T07:08:59.679Z,34.43
2018-02-10T07:11:27.747Z,35.03
2018-02-10T07:13:55.795Z,33.57
2018-02-10T07:16:24.694Z,33.47
2018-02-10T07:18:53.478Z,33.10
2018-02-10T07:21:22.338Z,25.03
2018-02-10T07:23:50.461Z,27.10
2018-02-10T07:26:19.241Z,24.60
2018-02-10T07:28:48.010Z,23.80
2018-02-10T07:31:16.128Z,26.40
2018-02-10T07:33:44.170Z,27.53
2018-02-10T07:36:12.917Z,24.67
2018-02-10T07:38:41.118Z,24.60
2018-02-10T07:41:09.271Z,26.27
2018-02-10T07:43:37.272Z,25.70
2018-02-10T07:46:05.437Z,21.00
2018-02-10T07:48:33.590Z,21.00
2018-02-10T07:51:01.665Z,18.47
2018-02-10T07:53:29.862Z,17.33
2018-02-10T07:55:57.860Z,16.30
2018-02-10T07:58:26.588Z,15.70
2018-02-10T08:00:54.791Z,16.83
2018-02-10T08:03:22.788Z,16.90
2018-02-10T08:05:51.571Z,16.97
2018-02-10T08:08:20.487Z,15.20
2018-02-10T08:10:48.536Z,17.23
2018-02-10T08:13:17.276Z,15.83
2018-02-10T08:15:45.414Z,15.80
2018-02-10T08:18:14.160Z,15.73
2018-02-10T08:20:42.230Z,16.17
2018-02-10T08:23:10.368Z,15.97
2018-02-10T08:25:38.385Z,15.73
2018-02-10T08:28:07.395Z,16.40
2018-02-10T08:30:35.521Z,15.93
2018-02-10T08:33:03.516Z,15.30
2018-02-10T08:35:31.563Z,15.93
2018-02-10T08:37:59.734Z,15.30
2018-02-10T08:40:27.732Z,16.80
2018-02-10T08:42:55.746Z,15.20
2018-02-10T08:45:24.697Z,16.77
2018-02-10T08:47:52.732Z,15.30
2018-02-10T08:50:20.892Z,15.90
2018-02-10T08:52:49.786Z,14.20
2018-02-10T08:55:18.571Z,14.83
2018-02-10T08:57:47.359Z,14.97
2018-02-10T09:00:16.281Z,16.40
2018-02-10T09:02:44.494Z,16.00
2018-02-10T09:05:12.492Z,14.30
2018-02-10T09:07:41.446Z,14.70
2018-02-10T09:10:09.506Z,15.40
2018-02-10T09:12:37.551Z,16.30
2018-02-10T09:15:05.692Z,16.13
2018-02-10T09:17:34.721Z,16.00
2018-02-10T09:20:02.720Z,17.87
2018-02-10T09:22:30.853Z,16.67
2018-02-10T09:24:59.614Z,17.20
2018-02-10T09:27:27.661Z,15.57
2018-02-10T09:29:55.822Z,14.83
2018-02-10T09:32:23.830Z,15.80
2018-02-10T09:34:51.870Z,15.60
2018-02-10T09:37:20.173Z,16.83
2018-02-10T09:39:48.215Z,16.17
2018-02-10T09:42:16.269Z,16.80
2018-02-10T09:44:44.441Z,14.50
2018-02-10T09:47:13.288Z,14.30
2018-02-10T09:49:41.288Z,14.30
2018-02-10T09:52:10.419Z,15.20
2018-02-10T09:54:38.469Z,16.70
2018-02-10T09:57:07.981Z,14.77
2018-02-10T09:59:36.183Z,15.07
2018-02-10T10:02:04.294Z,14.60
2018-02-10T10:04:32.356Z,15.00
2018-02-10T10:07:00.508Z,16.37
2018-02-10T10:09:28.526Z,17.43
2018-02-10T10:11:57.361Z,15.90
2018-02-10T10:14:25.513Z,16.97
2018-02-10T10:16:53.552Z,15.97
2018-02-10T10:19:21.605Z,16.10
2018-02-10T10:21:49.855Z,16.60
2018-02-10T10:24:17.873Z,17.13
2018-02-10T10:26:46.051Z,17.23
2018-02-10T10:29:14.220Z,15.53
2018-02-10T10:31:43.273Z,16.40
2018-02-10T10:34:11.268Z,17.47
2018-02-10T10:36:39.554Z,16.77
2018-02-10T10:39:07.717Z,16.10
2018-02-10T10:41:36.085Z,15.43
2018-02-10T10:44:04.258Z,17.90
2018-02-10T10:46:32.536Z,16.00
2018-02-10T10:49:00.883Z,18.50
2018-02-10T10:51:29.230Z,17.63
2018-02-10T10:53:57.605Z,17.60
2018-02-10T10:56:25.878Z,16.80
2018-02-10T10:58:54.172Z,18.20
2018-02-10T11:01:22.367Z,17.07
2018-02-10T11:03:51.243Z,18.67
2018-02-10T11:06:20.341Z,19.10
2018-02-10T11:08:48.443Z,20.10
2018-02-10T11:11:16.517Z,16.70
2018-02-10T11:13:44.665Z,17.87
2018-02-10T11:16:13.459Z,17.13
2018-02-10T11:18:42.218Z,17.40
2018-02-10T11:21:10.372Z,19.57
2018-02-10T11:23:38.367Z,18.60
2018-02-10T11:26:07.644Z,18.80
2018-02-10T11:28:40.298Z,18.77
2018-02-10T11:31:08.527Z,19.03
2018-02-10T11:33:37.685Z,17.67
2018-02-10T11:36:06.961Z,16.20
2018-02-10T11:38:35.024Z,17.77
2018-02-10T11:41:04.620Z,18.43
2018-02-10T11:43:32.744Z,17.67
2018-02-10T11:46:01.120Z,19.37
2018-02-10T11:48:29.165Z,19.73
2018-02-10T11:50:58.169Z,18.03
2018-02-10T11:53:26.192Z,19.00
2018-02-10T11:55:54.383Z,18.20
2018-02-10T11:58:23.448Z,18.30
2018-02-10T12:00:52.361Z,19.57
2018-02-10T12:03:20.937Z,19.47
2018-02-10T12:05:49.847Z,20.77
2018-02-10T12:08:17.904Z,19.80
2018-02-10T12:10:45.914Z,19.43
2018-02-10T12:13:14.790Z,19.73
2018-02-10T12:15:42.793Z,19.70
2018-02-10T12:18:10.795Z,20.60
2018-02-10T12:20:38.937Z,18.73
2018-02-10T12:23:07.244Z,20.50
2018-02-10T12:25:36.708Z,20.23
2018-02-10T12:28:05.764Z,20.77
2018-02-10T12:30:33.872Z,21.40
2018-02-10T12:33:02.066Z,19.80
2018-02-10T12:35:30.327Z,23.80
2018-02-10T12:37:59.212Z,23.27
2018-02-10T12:40:28.050Z,20.80
2018-02-10T12:42:56.400Z,22.27
2018-02-10T12:45:25.188Z,21.60
2018-02-10T12:48:12.835Z,20.40
2018-02-10T12:50:40.838Z,20.07
2018-02-10T12:53:08.864Z,20.80
2018-02-10T12:55:37.738Z,18.87
2018-02-10T12:58:06.648Z,20.40
2018-02-10T13:00:35.419Z,22.63
2018-02-10T13:03:04.293Z,20.80
2018-02-10T13:05:32.284Z,20.07
2018-02-10T13:08:01.060Z,22.33
2018-02-10T13:10:29.414Z,21.67
2018-02-10T13:12:57.408Z,20.87
2018-02-10T13:15:25.406Z,20.53
2018-02-10T13:17:54.290Z,21.23
2018-02-10T13:20:23.043Z,21.23
2018-02-10T13:22:51.073Z,21.50
2018-02-10T13:25:19.230Z,21.27
2018-02-10T13:27:48.014Z,20.90
2018-02-10T13:30:16.817Z,21.30
2018-02-10T13:32:45.775Z,21.73
2018-02-10T13:35:13.902Z,22.07
2018-02-10T13:37:41.950Z,21.97
2018-02-10T13:40:10.849Z,20.77
2018-02-10T13:42:39.667Z,21.43
2018-02-10T13:45:07.698Z,20.20
2018-02-10T13:47:36.608Z,19.00
2018-02-10T13:50:04.599Z,20.37
2018-02-10T13:52:32.748Z,20.10
2018-02-10T13:55:00.933Z,20.80
2018-02-10T13:57:29.077Z,19.50
2018-02-10T13:59:57.261Z,19.90
2018-02-10T14:02:25.545Z,19.50
2018-02-10T14:04:53.612Z,20.10
2018-02-10T14:07:22.395Z,20.40
2018-02-10T14:09:51.301Z,20.93
2018-02-10T14:12:20.059Z,21.40
2018-02-10T14:14:48.102Z,20.53
2018-02-10T14:17:16.278Z,19.03
2018-02-10T14:19:44.270Z,20.47
2018-02-10T14:22:12.455Z,20.00
2018-02-10T14:24:41.611Z,22.27
2018-02-10T14:27:09.635Z,22.50
2018-02-10T14:29:38.386Z,24.50
2018-02-10T14:32:06.570Z,23.93
2018-02-10T14:34:34.581Z,19.67
2018-02-10T14:37:03.313Z,21.40
2018-02-10T14:39:31.472Z,21.20
2018-02-10T14:41:59.684Z,19.37
2018-02-10T14:44:27.689Z,21.10
2018-02-10T14:46:56.567Z,19.53
2018-02-10T14:49:24.608Z,21.57
2018-02-10T14:51:52.693Z,21.43
2018-02-10T14:54:20.816Z,20.90
2018-02-10T14:56:49.553Z,20.20
2018-02-10T14:59:17.662Z,21.83
2018-02-10T15:01:46.714Z,19.73
2018-02-10T15:04:15.603Z,20.67
2018-02-10T15:06:43.627Z,22.83
2018-02-10T15:09:12.552Z,21.63
2018-02-10T15:11:40.609Z,22.53
2018-02-10T15:14:08.618Z,23.83
2018-02-10T15:16:36.774Z,24.70
2018-02-10T15:19:05.416Z,20.87
2018-02-10T15:21:34.253Z,21.93
2018-02-10T15:24:02.438Z,22.70
2018-02-10T15:26:30.588Z,22.60
2018-02-10T15:29:00.133Z,21.37
2018-02-10T15:31:43.778Z,23.53
2018-02-10T15:34:24.543Z,22.93
2018-02-10T15:36:53.262Z,27.27
2018-02-10T15:39:22.060Z,24.40
2018-02-10T15:41:53.053Z,25.23
2018-02-10T15:44:21.060Z,24.73
2018-02-10T15:46:49.086Z,21.87
2018-02-10T15:49:17.277Z,23.60
2018-02-10T15:51:45.308Z,24.33
2018-02-10T15:54:13.318Z,25.87
2018-02-10T15:56:41.487Z,25.87
2018-02-10T15:59:09.508Z,23.47
2018-02-10T16:01:39.286Z,24.00
2018-02-10T16:04:07.945Z,23.80
2018-02-10T16:06:36.042Z,23.67
2018-02-10T16:09:04.377Z,24.50
2018-02-10T16:11:32.592Z,24.10
2018-02-10T16:14:00.636Z,26.07
2018-02-10T16:16:30.316Z,25.20
2018-02-10T16:18:59.226Z,24.43
2018-02-10T16:21:27.210Z,26.00
2018-02-10T16:23:55.191Z,25.50
2018-02-10T16:26:23.336Z,26.27
2018-02-10T16:28:52.138Z,26.77
2018-02-10T16:31:20.263Z,27.10
2018-02-10T16:33:48.407Z,25.97
2018-02-10T16:36:16.404Z,26.47
2018-02-10T16:38:44.549Z,30.67
2018-02-10T16:41:12.762Z,28.10
2018-02-10T16:43:40.756Z,30.63
2018-02-10T16:46:09.622Z,28.50
2018-02-10T16:48:37.762Z,28.80
2018-02-10T16:51:05.809Z,28.07
2018-02-10T16:53:34.610Z,28.90
2018-02-10T16:56:02.776Z,26.17
2018-02-10T16:58:30.981Z,27.30
2018-02-10T17:01:04.437Z,26.60
2018-02-10T17:03:33.257Z,26.73
2018-02-10T17:06:01.579Z,28.30
2018-02-10T17:08:29.934Z,28.10
2018-02-10T17:10:57.987Z,27.27
2018-02-10T17:13:26.244Z,26.77
2018-02-10T17:15:55.010Z,26.97
2018-02-10T17:18:24.231Z,27.80
2018-02-10T17:20:53.300Z,28.33
2018-02-10T17:23:21.515Z,24.47
2018-02-10T17:28:58.331Z,26.80
2018-02-10T17:31:30.541Z,28.63
2018-02-10T17:51:30.769Z,27.87
2018-02-10T17:54:02.219Z,27.33
2018-02-10T17:56:30.970Z,29.27
2018-02-10T17:59:00.375Z,26.13
2018-02-10T18:01:28.698Z,30.13
2018-02-10T18:03:56.743Z,29.10
2018-02-10T18:06:25.022Z,27.60
2018-02-10T18:08:53.079Z,29.83
2018-02-10T18:11:22.096Z,29.17
2018-02-10T18:13:50.560Z,31.40
2018-02-10T18:16:20.886Z,28.90
2018-02-10T18:18:54.337Z,30.43
2018-02-10T18:21:26.360Z,30.03
2018-02-10T18:23:54.772Z,29.70
2018-02-10T18:26:26.717Z,31.30
2018-02-10T18:28:55.941Z,30.47
2018-02-10T18:31:29.057Z,31.10
2018-02-10T18:33:57.512Z,30.47
2018-02-10T18:36:27.844Z,30.20
2018-02-10T18:38:56.167Z,29.43
2018-02-10T18:41:28.636Z,29.93
2018-02-10T18:43:57.410Z,30.10
2018-02-10T18:46:27.040Z,30.07
2018-02-10T18:48:55.086Z,30.33
2018-02-10T18:51:23.201Z,30.90
2018-02-10T18:53:51.208Z,31.57
2018-02-10T18:56:20.234Z,30.17
2018-02-10T18:58:49.030Z,32.07
2018-02-10T19:01:17.841Z,30.93
2018-02-10T19:03:45.907Z,31.37
2018-02-10T19:06:13.948Z,33.10
2018-02-10T19:08:42.130Z,31.77
2018-02-10T19:11:11.022Z,31.60
2018-02-10T19:13:39.804Z,32.13
2018-02-10T19:16:07.816Z,32.10
2018-02-10T19:18:35.949Z,32.00
2018-02-10T19:21:03.962Z,33.50
2018-02-10T19:23:31.960Z,34.40
2018-02-10T19:28:42.471Z,36.63
2018-02-10T19:31:13.490Z,35.83
2018-02-10T19:36:47.596Z,35.07
2018-02-10T19:40:01.856Z,34.80
2018-02-10T19:42:53.423Z,36.10
2018-02-10T19:45:31.977Z,36.33
2018-02-10T19:51:08.275Z,38.17
2018-02-10T19:54:01.954Z,37.40
